Date,TemperatureHighF,TemperatureAvgF,TemperatureLowF,DewpointHighF,DewpointAvgF,DewpointLowF,HumidityHigh,HumidityAvg,HumidityLow,PressureMaxIn,PressureMinIn,WindSpeedMaxMPH,WindSpeedAvgMPH,GustSpeedMaxMPH,PrecipitationSumIn
2013-1-1,30.0,17.7,10.9,24.0,-7.1,-99.9,86,60,63,30.20,30.06,10,-188,0,0.00
2013-1-2,26.3,17.2,11.3,20.0,-4.7,-99.9,89,67,75,30.27,30.14,5,-178,0,0.00
2013-1-3,30.1,20.0,14.9,27.0,-4.5,-99.9,88,65,73,30.24,30.14,9,-204,0,0.00
2013-1-4,29.5,20.6,21.7,26.0,-4.7,-99.9,87,63,72,30.25,30.11,13,-204,0,0.00
2013-1-5,35.4,24.7,20.2,32.0,3.2,-99.9,93,68,70,30.34,30.10,9,-174,0,0.00
2013-1-6,37.6,27.4,32.6,34.0,3.1,-99.9,91,68,81,30.31,29.97,12,-212,0,0.02
2013-1-7,38.1,26.2,29.5,29.0,-1.9,-99.9,85,60,68,30.44,30.22,13,-216,0,0.00
2013-1-8,40.4,27.5,26.1,32.0,5.1,-99.9,91,66,66,30.31,30.22,6,-178,0,0.00
2013-1-9,47.2,32.0,31.1,37.0,5.1,-99.9,91,58,56,30.49,30.08,10,-199,0,0.00
2013-1-10,40.9,29.4,25.9,34.0,7.8,-99.9,94,68,73,30.60,30.20,12,-175,0,0.03
2013-1-11,59.8,39.6,36.2,54.0,16.6,-99.9,98,71,80,30.19,29.81,10,-205,0,0.22
2013-1-12,61.2,44.0,47.6,55.0,22.6,-99.9,97,72,79,29.96,29.83,11,-186,0,0.10
2013-1-13,52.7,33.0,34.0,52.0,11.5,-99.9,100,76,91,30.07,29.73,14,-205,0,0.57
2013-1-14,33.7,19.0,20.4,31.0,-13.2,-99.9,92,57,72,30.49,30.08,11,-280,0,0.00
2013-1-15,31.2,21.1,17.2,23.0,-2.7,-99.9,95,65,65,30.50,30.19,6,-193,0,0.00
2013-1-16,38.5,25.7,24.0,29.0,-1.4,-99.9,93,59,58,30.18,29.89,13,-210,0,0.00
2013-1-17,39.4,26.5,21.6,31.0,1.2,-99.9,94,58,53,30.36,30.03,16,-174,0,0.00
2013-1-18,37.4,25.2,20.6,26.0,-2.0,-99.9,72,52,58,30.50,30.06,18,-165,0,0.00
2013-1-19,49.6,38.9,37.3,37.0,17.4,-99.9,77,57,56,30.05,29.65,17,-105,0,0.00
2013-1-20,43.1,21.2,19.8,37.0,-7.1,-99.9,78,50,54,30.23,29.63,22,-180,0,0.00
2013-1-21,22.0,12.5,8.0,13.0,-14.8,-99.9,84,57,60,30.20,30.01,15,-210,0,0.00
2013-1-22,12.1,6.6,2.0,8.0,-17.3,-99.9,85,61,65,30.38,30.19,9,-184,0,0.00
2013-1-23,19.4,11.8,5.4,14.0,-12.4,-99.9,89,61,60,30.37,30.14,10,-185,0,0.00
2013-1-24,21.6,13.2,10.6,14.0,-10.0,-99.9,90,60,52,30.65,30.16,8,-167,0,0.00
2013-1-25,23.2,16.4,16.4,20.0,-6.5,-99.9,92,66,62,30.56,30.08,7,-186,0,0.00
2013-1-26,27.2,19.8,18.9,21.0,-2.2,-99.9,92,67,66,30.51,30.11,10,-164,0,0.00
2013-1-27,31.7,21.8,14.9,29.0,3.2,-99.9,94,71,67,30.54,30.19,10,-145,0,0.00
2013-1-28,48.6,34.3,32.0,48.0,13.9,-99.9,98,78,88,30.20,29.91,13,-196,0,0.09
2013-1-29,59.5,40.0,37.7,57.0,15.1,-99.9,99,73,88,30.05,29.50,12,-236,0,0.10
2013-1-30,61.7,38.4,34.9,58.0,11.3,-99.9,98,68,80,29.48,29.14,17,-245,0,0.09
2013-1-31,34.4,20.1,18.0,28.0,-2.2,-99.9,92,63,63,29.95,29.31,22,-161,0,0.00
2013-2-1,20.9,14.2,13.6,14.0,-7.3,-99.9,85,63,66,30.35,29.95,13,-153,0,0.00
2013-2-2,25.3,16.0,14.9,22.0,-8.3,-99.9,91,66,73,30.30,30.00,8,-206,0,0.00
2013-2-3,23.9,14.5,6.6,19.0,-8.5,-99.9,90,65,72,30.09,29.92,13,-187,0,0.00
2013-2-4,26.9,17.9,18.4,22.0,-3.6,-99.9,92,72,81,30.09,29.93,3,-191,0,0.00
2013-2-5,31.1,20.4,18.7,27.0,-4.7,-99.9,93,66,65,30.00,29.87,9,-217,0,0.00
2013-2-6,33.4,23.0,11.3,27.0,1.9,-99.9,92,63,54,30.35,30.01,11,-144,0,0.06
2013-2-7,37.3,27.3,27.0,31.0,7.3,-99.9,91,69,72,30.33,29.88,12,-154,0,0.05
2013-2-8,33.3,23.5,19.7,32.0,2.3,-99.9,95,71,78,30.39,29.78,12,-164,0,0.06
2013-2-9,32.0,21.3,12.6,25.0,4.1,-99.9,93,73,70,30.50,30.34,8,-134,0,0.02
2013-2-10,45.2,29.4,24.6,41.0,9.3,-99.9,93,69,72,30.34,29.73,12,-154,0,0.06
2013-2-11,46.9,33.1,33.4,45.0,13.1,-99.9,92,66,70,29.93,29.61,16,-139,0,0.00
2013-2-12,36.1,27.3,30.7,29.0,4.1,-99.9,82,63,70,30.10,29.94,18,-176,0,0.00
2013-2-13,39.7,26.9,28.0,30.0,5.1,-99.9,92,66,64,29.97,29.78,8,-166,0,0.00
2013-2-14,42.7,32.5,29.6,38.0,16.1,-99.9,91,74,74,29.90,29.74,10,-122,0,0.01
2013-2-15,36.3,24.8,25.3,30.0,-1.5,-99.9,85,56,58,30.17,29.90,11,-183,0,0.00
2013-2-16,29.1,20.1,17.6,24.0,1.5,-99.9,90,68,60,30.16,30.03,14,-132,0,0.00
2013-2-17,25.9,17.2,13.9,14.0,-4.1,-99.9,89,60,50,30.27,30.10,10,-132,0,0.00
2013-2-18,48.9,31.0,18.0,37.0,7.9,-99.9,79,57,51,30.27,29.66,10,-138,0,0.00
2013-2-19,47.7,24.0,19.8,42.0,2.4,-99.9,92,65,66,30.00,29.48,18,-160,0,0.06
2013-2-20,24.1,19.2,19.3,19.0,-1.2,-99.9,85,62,61,30.29,30.00,16,-129,0,0.00
2013-2-21,27.1,20.4,22.5,20.0,-0.1,-99.9,84,64,66,30.43,30.29,11,-145,0,0.00
2013-2-22,36.3,26.4,24.2,35.0,10.9,-99.9,97,79,83,30.30,29.94,18,-132,0,0.04
2013-2-23,35.7,27.3,28.0,33.0,5.4,-99.9,91,63,63,29.98,29.93,10,-155,0,0.04
2013-2-24,37.8,27.4,23.7,29.0,8.6,-99.9,91,68,67,30.19,29.95,9,-134,0,0.00
2013-2-25,41.1,28.9,22.7,31.0,11.4,-99.9,95,69,57,30.27,30.12,9,-113,0,0.00
2013-2-26,35.2,28.9,30.1,34.0,12.5,-99.9,97,76,75,30.14,29.50,21,-128,0,0.41
2013-2-27,38.0,27.0,33.7,36.0,3.1,-99.9,97,73,91,29.63,29.46,16,-228,0,0.13
2013-2-28,38.8,29.3,32.3,35.0,10.0,-99.9,96,73,78,29.99,29.59,14,-163,0,0.21
2013-3-1,32.1,24.4,27.1,28.0,4.6,-99.9,87,69,77,30.14,29.99,10,-152,0,0.21
2013-3-2,29.0,23.4,25.4,25.0,5.8,-99.9,90,71,76,30.12,30.08,8,-131,0,0.00
2013-3-3,31.6,22.4,18.6,21.0,2.2,-99.9,92,64,56,30.11,30.05,13,-132,0,0.00
2013-3-4,36.7,25.0,19.7,25.0,8.8,-99.9,93,67,53,30.20,30.10,7,-92,0,0.00
2013-3-5,33.9,26.4,24.3,28.0,11.8,-99.9,90,74,77,30.17,29.82,18,-99,0,0.00
2013-3-6,42.6,31.4,29.0,34.0,14.6,-99.9,88,70,69,30.23,29.83,14,-114,0,0.00
2013-3-7,38.9,31.2,29.3,33.0,14.2,-99.9,90,69,65,30.41,30.22,9,-114,0,0.00
2013-3-8,46.9,31.4,26.2,31.0,12.3,-99.9,92,64,52,30.52,30.41,5,-114,0,0.00
2013-3-9,42.2,33.0,27.6,37.0,20.5,-99.9,95,77,68,30.45,30.08,12,-80,0,0.00
2013-3-10,66.5,42.5,36.0,48.0,17.9,-99.9,91,58,44,30.08,29.81,12,-154,0,0.00
2013-3-11,57.7,45.3,38.9,51.0,30.5,-99.9,97,74,62,29.84,29.49,19,-95,0,0.25
2013-3-12,38.7,31.4,32.0,35.0,14.6,-99.9,88,72,72,29.97,29.74,16,-121,0,0.25
2013-3-13,34.1,26.8,28.0,30.0,7.3,-99.9,92,64,61,30.25,29.91,16,-122,0,0.00
2013-3-14,42.8,30.8,24.4,26.0,12.1,-99.9,82,59,46,30.31,30.13,11,-80,0,0.00
2013-3-15,45.8,34.5,32.3,37.0,21.2,-99.9,96,74,69,30.13,29.88,6,-82,0,0.12
2013-3-16,35.9,27.7,30.2,35.0,12.1,-99.9,97,79,80,30.08,29.77,13,-134,0,0.15
2013-3-17,32.4,26.6,23.9,27.0,10.1,-99.9,86,66,58,30.30,30.09,14,-90,0,0.00
2013-3-18,37.3,29.8,26.3,37.0,17.2,-99.9,97,81,80,30.22,29.59,18,-98,0,0.03
2013-3-19,35.9,25.8,25.0,33.0,5.5,-99.9,91,63,61,29.99,29.69,18,-131,0,0.03
2013-3-20,31.4,25.4,20.1,21.0,9.8,-99.9,76,62,56,30.00,29.94,15,-56,0,0.00
2013-3-21,33.0,24.2,17.1,26.0,10.1,-99.9,86,71,65,29.99,29.93,14,-79,0,0.00
2013-3-22,42.6,30.5,27.0,27.0,11.9,-99.9,80,61,51,30.06,29.99,12,-90,0,0.00
2013-3-23,42.0,30.9,24.5,29.0,17.7,-99.9,91,71,56,30.14,30.06,9,-61,0,0.00
2013-3-24,37.3,30.3,26.9,28.0,17.2,-99.9,91,72,62,30.07,29.63,16,-68,0,0.00
2013-3-25,40.5,31.4,32.6,34.0,13.3,-99.9,90,68,68,29.93,29.56,13,-120,0,0.00
2013-3-26,45.6,36.2,34.3,35.0,23.0,-99.9,86,70,55,30.15,29.93,11,-59,0,0.00
2013-3-27,46.8,37.2,32.0,33.0,20.0,-99.9,87,62,48,30.24,30.15,16,-66,0,0.00
2013-3-28,52.4,39.4,30.3,34.0,19.8,-99.9,82,57,42,30.30,30.24,13,-69,0,0.00
2013-3-29,54.4,39.7,30.1,30.0,18.5,-99.9,81,53,32,30.32,30.21,8,-60,0,0.00
2013-3-30,58.6,42.3,28.3,35.0,21.4,-99.9,84,53,26,30.25,29.96,9,-51,0,0.00
2013-3-31,61.0,45.6,40.3,47.0,26.3,-99.9,96,60,39,29.96,29.64,17,-80,0,0.01
2013-4-1,45.9,34.7,26.5,34.0,14.0,-99.9,77,49,33,30.15,29.71,16,-34,0,0.01
2013-4-2,43.4,31.4,22.8,22.0,11.4,-99.9,80,51,32,30.29,30.14,16,-38,0,0.00
2013-4-3,44.9,31.9,21.9,24.0,11.4,-99.9,77,52,30,30.46,30.29,15,-38,0,0.00
2013-4-4,56.4,38.2,24.4,28.0,15.2,-99.9,78,48,27,30.42,29.98,9,-40,0,0.00
2013-4-5,51.8,39.9,35.1,33.0,16.8,-99.9,77,50,28,30.24,29.97,9,-75,0,0.00
2013-4-6,52.2,42.1,35.1,36.0,25.8,-99.9,75,59,42,30.29,29.84,13,-29,0,0.00
2013-4-7,61.0,53.2,45.5,50.0,33.5,-99.9,84,54,33,30.03,29.67,15,-41,0,0.00
2013-4-8,71.3,48.9,40.7,64.0,38.1,-99.9,98,76,62,30.05,29.72,13,-44,0,0.14
2013-4-9,53.9,45.3,40.1,47.0,37.3,-99.9,96,84,77,30.10,29.89,10,-44,0,0.14
2013-4-10,50.6,40.4,42.2,48.0,27.4,-99.9,98,84,88,29.98,29.85,10,-115,0,0.51
2013-4-11,42.3,34.7,38.1,42.0,20.8,-99.9,98,83,91,29.99,29.64,20,-119,0,0.74
2013-4-12,43.6,37.0,37.5,42.0,24.2,-99.9,100,80,76,29.83,29.55,16,-96,0,0.10
2013-4-13,44.5,38.7,38.9,39.0,26.5,-99.9,88,73,66,30.03,29.83,16,-56,0,0.01
2013-4-14,47.0,39.8,33.3,38.0,27.2,-99.9,92,71,61,30.15,29.97,13,-49,0,0.01
2013-4-15,70.6,56.7,39.6,55.0,45.3,-99.9,93,71,56,30.00,29.88,15,-17,0,0.00
2013-4-16,63.4,51.8,50.0,55.0,34.5,-99.9,98,67,50,30.20,29.88,11,-91,0,0.03
2013-4-17,53.7,47.0,44.1,43.0,31.6,-99.9,87,62,53,30.34,30.06,14,-37,0,0.04
2013-4-18,80.7,56.3,45.9,67.0,42.1,-99.9,96,76,58,30.06,29.58,27,-87,0,0.84
2013-4-19,59.7,38.2,37.7,59.0,18.1,-99.9,98,69,68,29.81,29.34,16,-152,0,0.03
2013-4-20,42.8,36.1,32.0,33.0,21.2,-99.9,90,63,46,30.48,29.81,18,-36,0,0.03
2013-4-21,45.0,36.2,26.5,33.0,23.9,-99.9,94,68,46,30.67,30.48,11,-28,0,0.00
2013-4-22,58.8,47.9,37.1,41.0,36.3,27.0,94,67,31,30.50,30.22,11,3,0,0.00
2013-4-23,72.9,54.0,42.2,56.0,45.1,38.0,96,75,39,30.21,29.81,14,2,0,0.21
2013-4-24,58.6,38.0,37.1,56.0,21.9,-99.9,97,77,70,30.18,29.71,14,-131,0,0.33
2013-4-25,53.2,43.2,35.3,45.0,34.7,29.0,91,73,48,30.38,30.16,12,4,0,0.09
2013-4-26,57.2,45.7,30.0,42.0,35.9,28.0,94,71,49,30.50,30.37,11,3,0,0.09
2013-4-27,67.1,53.6,37.1,46.0,39.8,36.0,97,64,37,30.40,30.11,11,3,0,0.00
2013-4-28,55.0,49.3,49.7,54.0,40.1,-99.9,98,84,65,30.11,29.84,10,-60,0,0.34
2013-4-29,70.9,57.2,53.2,59.0,47.3,-99.9,99,80,62,29.95,29.84,5,-52,0,0.36
2013-4-30,72.0,62.5,54.3,60.0,55.9,52.0,93,80,64,30.07,29.95,15,3,0,0.00
2013-5-1,79.6,64.5,52.9,63.0,56.1,51.0,96,76,49,30.23,30.06,13,3,0,0.00
2013-5-2,76.4,63.8,54.2,59.0,52.1,47.0,87,67,50,30.24,30.13,12,4,0,0.00
2013-5-3,73.2,64.4,55.7,59.0,50.3,42.0,83,62,36,30.13,30.04,19,5,0,0.00
2013-5-4,65.9,60.9,57.5,52.0,49.3,44.0,77,66,54,30.11,30.05,11,5,0,0.00
2013-5-5,69.5,62.0,56.5,49.0,45.6,40.0,74,57,34,30.10,30.01,15,5,0,0.00
2013-5-6,68.6,59.9,50.4,50.0,46.4,43.0,79,62,50,30.06,29.98,10,4,0,0.00
2013-5-7,68.7,57.8,51.0,57.0,49.6,43.0,85,74,56,30.05,29.99,11,1,0,0.00
2013-5-8,74.0,62.0,55.9,59.0,52.2,47.0,89,71,49,30.01,29.93,9,1,0,0.06
2013-5-9,82.3,67.1,51.8,61.0,54.8,50.0,97,69,41,29.97,29.89,7,1,0,0.01
2013-5-10,74.9,61.3,46.4,63.0,52.3,-99.9,100,79,62,29.92,29.72,11,-28,0,0.27
2013-5-11,61.2,49.3,39.9,49.0,43.8,36.0,92,82,62,29.93,29.77,17,4,0,0.01
2013-5-12,50.6,41.1,35.8,36.0,25.1,-99.9,88,62,47,30.12,29.92,18,-46,0,0.01
2013-5-13,57.3,44.5,29.6,35.0,27.7,22.0,90,56,27,30.21,30.12,13,3,0,0.00
2013-5-14,80.6,61.4,44.5,59.0,44.5,32.0,85,56,39,30.13,29.71,14,3,0,0.00
2013-5-15,86.3,75.5,60.7,62.0,54.7,45.0,89,53,24,29.76,29.60,15,5,0,0.00
2013-5-16,84.7,70.2,53.3,51.0,47.3,41.0,76,47,25,29.98,29.75,12,3,0,0.00
2013-5-17,68.8,60.4,51.3,50.0,45.2,39.0,77,58,45,30.14,29.99,13,5,0,0.00
2013-5-18,71.4,62.9,55.0,56.0,49.3,45.0,78,62,50,30.14,30.04,15,6,0,0.00
2013-5-19,84.7,69.2,54.2,67.0,59.1,50.0,88,71,53,30.04,29.89,12,3,0,0.00
2013-5-20,92.2,78.2,63.7,73.0,66.5,61.0,94,70,42,29.92,29.76,16,3,0,0.00
2013-5-21,89.2,80.4,73.5,69.0,64.5,60.0,81,60,40,29.81,29.68,16,3,0,0.00
2013-5-22,84.2,68.6,64.7,67.0,53.4,-99.9,91,68,46,29.74,29.61,17,-59,0,0.06
2013-5-23,69.2,57.5,44.9,63.0,54.4,41.0,97,90,75,30.14,29.69,17,4,0,0.45
2013-5-24,57.7,48.8,42.6,42.0,39.0,35.0,94,71,49,30.35,30.14,11,3,0,0.45
2013-5-25,67.2,54.0,37.8,44.0,39.8,36.0,95,62,36,30.42,30.27,7,1,0,0.00
2013-5-26,71.5,57.2,39.4,47.0,40.4,34.0,95,58,31,30.35,30.22,8,2,0,0.00
2013-5-27,60.4,54.3,48.3,55.0,48.2,41.0,95,81,54,30.27,30.01,12,3,0,0.86
2013-5-28,79.7,63.8,55.6,73.0,53.6,-99.9,99,82,72,30.00,29.82,11,-62,0,0.15
2013-5-29,86.8,78.5,70.6,70.0,66.7,64.0,90,68,51,29.97,29.81,15,4,0,0.15
2013-5-30,90.2,77.6,68.7,74.0,68.4,63.0,93,74,51,30.05,29.94,9,2,0,0.16
2013-5-31,84.6,75.5,68.6,72.0,68.2,66.0,95,78,60,29.98,29.86,15,4,0,0.16
2013-6-1,81.8,72.1,64.5,70.0,64.4,-99.9,96,79,61,29.88,29.69,12,-7,0,0.03
2013-6-2,75.2,64.4,57.8,67.0,51.3,-99.9,95,72,59,29.96,29.66,11,-51,0,0.03
2013-6-3,70.1,59.0,47.4,50.0,44.6,41.0,84,61,37,30.08,29.96,8,2,0,0.00
2013-6-4,70.2,60.9,50.0,52.0,49.2,41.0,88,67,49,30.19,30.08,8,2,0,0.00
2013-6-5,70.8,62.0,53.5,54.0,47.0,40.0,73,58,49,30.16,29.99,13,3,0,0.00
2013-6-6,71.4,62.4,56.0,56.0,51.1,45.0,75,67,58,29.99,29.83,9,3,0,0.00
2013-6-7,63.2,60.1,55.0,56.0,53.6,51.0,86,79,73,29.90,29.85,6,2,0,0.00
2013-6-8,73.1,64.8,58.1,58.0,55.4,54.0,90,73,55,30.06,29.90,8,1,0,0.00
2013-6-9,73.4,68.7,64.8,63.0,60.2,58.0,91,75,62,30.10,29.94,17,7,0,0.08
2013-6-10,76.3,63.1,62.4,70.0,55.2,-99.9,100,88,80,29.93,29.72,6,-62,0,0.69
2013-6-11,84.3,69.7,65.3,69.0,58.8,-99.9,98,77,58,29.88,29.75,10,-43,0,0.69
2013-6-12,77.4,65.5,66.3,68.0,49.4,-99.9,93,72,70,29.91,29.83,5,-103,0,0.00
2013-6-24,89.6,79.3,68.3,74.0,70.7,67.0,95,76,56,30.06,29.91,10,2,0,0.01
2013-6-25,87.9,74.8,68.8,77.0,69.7,66.0,95,85,64,29.99,29.79,10,2,0,0.43
2013-6-26,85.8,71.7,66.3,73.0,62.6,-99.9,96,81,62,29.91,29.72,7,-41,0,0.25
2013-6-27,83.1,73.4,67.5,73.0,70.4,67.0,98,91,67,29.75,29.62,8,1,0,1.51
2013-6-28,76.1,66.6,63.2,70.0,64.8,61.0,99,94,77,29.62,29.51,10,1,0,0.84
2013-6-29,73.6,60.0,61.6,68.0,45.7,-99.9,99,80,77,29.68,29.53,3,-116,0,0.09
2013-6-30,77.0,67.3,62.5,65.0,56.8,-99.9,98,76,59,29.91,29.72,10,-31,0,0.17
2013-7-1,67.1,63.2,59.7,62.0,58.4,53.0,98,85,66,30.03,29.90,9,3,0,1.46
2013-7-2,73.2,62.7,61.5,67.0,52.7,-99.9,93,81,78,30.06,29.99,7,-60,0,1.46
2013-7-3,83.8,68.2,64.2,71.0,65.8,63.0,97,92,57,30.09,30.02,8,0,0,0.00
2013-7-4,83.6,72.3,70.5,71.0,65.2,-99.9,95,84,61,30.12,30.05,5,-27,0,0.01
2013-7-5,81.4,67.9,69.7,72.0,56.2,-99.9,97,81,65,30.10,30.04,4,-81,0,0.03
2013-7-6,82.1,72.2,69.3,73.0,67.8,-99.9,98,89,73,30.10,29.98,2,-15,0,0.82
2013-7-7,82.6,68.6,69.2,72.0,55.6,-99.9,98,78,65,30.04,29.95,11,-82,0,0.02
2013-7-8,86.0,73.8,68.2,77.0,70.6,67.0,97,90,72,30.03,29.96,10,1,0,0.62
2013-7-9,90.5,72.1,71.5,79.0,62.4,-99.9,98,84,67,29.98,29.87,13,-61,0,0.11
2013-7-10,89.7,77.9,69.9,80.0,72.9,64.0,96,85,62,29.91,29.75,13,3,0,0.28
2013-7-11,80.3,71.4,64.1,64.0,60.2,57.0,90,70,48,30.05,29.91,8,2,0,0.00
2013-7-12,81.5,70.2,57.9,66.0,62.0,56.0,95,77,56,30.14,30.04,8,2,0,0.00
2013-7-13,81.9,73.8,65.2,70.0,66.3,62.0,93,78,58,30.19,30.11,9,3,0,0.00
2013-7-14,85.3,77.6,67.6,74.0,71.0,66.0,96,81,63,30.23,30.18,9,2,0,0.00
2013-7-15,93.8,82.5,72.7,80.0,75.8,72.0,97,81,60,30.27,30.20,6,1,0,0.00
2013-7-16,90.4,82.3,77.0,82.0,77.2,74.0,96,85,70,30.29,30.21,5,1,0,0.55
2013-7-17,95.0,84.1,73.3,80.0,76.2,72.0,94,78,59,30.27,30.13,7,2,0,0.00
2013-7-18,95.8,84.9,73.5,80.0,76.4,72.0,96,77,55,30.14,29.94,6,1,0,0.00
2013-7-19,94.3,85.9,77.6,78.0,75.5,71.0,87,72,56,29.95,29.71,12,4,0,0.00
2013-7-20,86.5,77.9,70.1,75.0,71.1,66.0,99,81,52,29.89,29.70,17,2,0,1.27
2013-7-21,84.7,75.4,65.9,70.0,66.2,62.0,93,74,56,29.98,29.89,6,1,0,0.00
2013-7-22,82.2,75.1,69.0,72.0,68.9,66.0,95,81,64,29.93,29.75,5,1,0,0.06
2013-7-23,86.5,72.7,62.8,74.0,68.0,56.0,98,86,59,29.85,29.65,9,2,0,0.92
2013-7-24,74.5,65.0,56.3,57.0,53.6,51.0,84,68,49,30.04,29.86,7,2,0,0.00
2013-7-25,77.0,65.9,53.1,61.0,56.5,51.0,96,74,52,30.11,30.04,7,1,0,0.00
2013-7-26,80.9,70.0,56.5,64.0,60.2,55.0,97,73,51,30.10,29.89,5,1,0,0.00
2013-7-27,76.3,68.0,58.9,68.0,63.8,55.0,96,86,73,29.90,29.71,12,3,0,0.40
2013-7-28,69.2,61.1,52.4,56.0,53.7,51.0,95,78,61,30.00,29.84,15,2,0,0.00
2013-7-29,71.9,62.7,55.8,61.0,56.2,53.0,92,80,60,30.18,29.99,11,2,0,0.00
2013-7-30,80.9,67.0,52.6,65.0,59.5,52.0,98,79,52,30.23,30.12,5,1,0,0.00
2013-7-31,80.5,71.8,66.5,70.0,66.2,63.0,97,83,64,30.12,29.87,8,1,0,0.22
2013-8-1,80.4,71.2,62.3,68.0,63.9,58.0,97,80,51,29.91,29.86,8,2,0,0.00
2013-8-2,74.0,66.0,55.9,67.0,61.1,54.0,95,84,68,29.94,29.84,11,1,0,0.01
2013-8-3,80.2,71.0,60.1,66.0,61.0,56.0,98,74,46,30.02,29.89,11,2,0,0.01
2013-8-4,74.9,66.3,56.2,59.0,56.4,53.0,92,72,51,30.14,30.02,9,2,0,0.00
2013-8-5,74.3,65.6,53.6,61.0,56.7,52.0,96,74,50,30.11,29.96,6,0,0,0.00
2013-8-6,81.2,72.2,65.3,69.0,64.6,61.0,92,78,63,29.96,29.88,7,1,0,0.00
2013-8-7,86.6,74.8,67.4,75.0,69.6,65.0,94,84,63,29.91,29.82,10,2,0,0.21
2013-8-8,77.6,72.5,68.0,73.0,67.8,64.0,97,85,74,29.98,29.87,11,2,0,0.00
2013-8-9,83.1,71.7,62.3,65.0,60.6,56.0,86,70,49,30.00,29.93,5,1,0,0.00
2013-8-10,79.3,69.9,63.2,65.0,63.0,61.0,94,80,58,30.12,30.00,8,1,0,0.00
2013-8-11,83.1,71.2,56.5,66.0,61.4,56.0,97,73,51,30.12,30.01,5,1,0,0.00
2013-8-12,76.8,68.5,64.2,70.0,65.3,63.0,99,90,75,30.05,29.82,6,1,0,1.87
2013-8-13,68.6,63.7,56.0,66.0,56.7,50.0,98,80,54,30.05,29.81,13,3,0,0.05
2013-8-14,74.2,60.0,49.1,56.0,51.2,47.0,92,75,47,30.16,30.05,8,2,0,0.00
2013-8-15,76.3,63.9,49.6,58.0,53.3,49.0,97,72,41,30.18,30.09,5,0,0,0.00
2013-8-16,80.4,67.3,54.0,60.0,55.9,52.0,95,70,43,30.19,30.12,7,0,0,0.00
2013-8-17,78.7,66.9,54.1,63.0,58.5,53.0,97,77,49,30.25,30.18,7,1,0,0.00
2013-8-18,81.4,69.8,58.8,69.0,61.6,58.0,98,78,47,30.20,30.10,6,1,0,0.00
2013-8-19,84.7,71.3,57.0,67.0,62.3,56.0,98,76,48,30.12,30.02,5,0,0,0.00
2013-8-20,87.8,74.5,60.6,70.0,65.9,60.0,98,77,50,30.14,30.05,6,1,0,0.00
2013-8-21,89.0,77.8,66.1,71.0,68.0,63.0,91,73,51,30.13,29.98,7,1,0,0.00
2013-8-22,83.4,74.7,69.9,72.0,69.7,68.0,96,85,67,30.03,29.95,10,2,0,0.13
2013-8-23,83.9,73.2,63.0,69.0,61.6,54.0,97,70,37,30.18,30.02,6,1,0,0.00
2013-8-24,81.2,70.6,57.0,67.0,60.1,56.0,96,72,46,30.30,30.18,7,1,0,0.00
2013-8-25,88.4,73.9,56.7,67.0,63.2,56.0,99,73,46,30.30,30.14,6,1,0,0.00
2013-8-26,90.0,78.3,66.2,74.0,68.5,63.0,88,73,56,30.16,29.96,8,2,0,0.00
2013-8-27,85.9,77.8,71.4,78.0,73.9,71.0,98,88,75,29.99,29.82,7,1,0,0.85
2013-8-28,85.5,78.3,71.8,77.0,73.9,70.0,94,87,72,29.97,29.77,6,1,0,0.54
2013-8-29,87.0,75.7,66.5,74.0,69.6,66.0,98,83,59,30.06,29.97,7,1,0,0.00
2013-8-30,88.8,77.1,63.7,75.0,69.6,64.0,99,80,55,29.99,29.74,8,1,0,0.01
2013-8-31,83.2,74.6,68.5,74.0,71.0,68.0,98,89,73,29.81,29.71,9,2,0,0.70
2013-9-1,84.9,75.6,69.7,75.0,70.6,68.0,94,85,68,29.82,29.70,6,1,0,0.00
2013-9-2,79.1,71.5,62.4,71.0,64.8,54.0,98,80,56,29.90,29.70,13,3,0,0.00
2013-9-3,74.8,64.8,59.0,60.0,56.1,52.0,92,74,57,30.02,29.89,10,2,0,0.00
2013-9-4,81.8,67.9,53.9,64.0,59.2,53.0,97,76,49,30.10,30.00,8,1,0,0.00
2013-9-5,73.3,65.3,57.9,62.0,54.9,48.0,95,72,43,30.25,30.06,7,1,0,0.00
2013-9-6,75.3,63.2,48.3,58.0,52.9,46.0,97,72,38,30.28,30.08,6,1,0,0.00
2013-9-7,83.6,69.1,55.8,71.0,62.3,51.0,94,79,61,30.07,29.88,9,0,0,0.02
2013-9-8,75.1,69.4,61.5,68.0,62.6,55.0,95,80,59,30.06,29.91,7,2,0,0.00
2013-9-9,79.0,65.6,55.9,73.0,63.5,54.0,98,93,80,30.06,29.90,1,0,0,0.48
2013-9-10,95.3,84.2,74.0,76.0,72.7,68.0,91,70,47,29.99,29.89,8,2,0,0.00
2013-9-11,94.5,81.3,70.4,76.0,71.6,67.0,96,74,49,30.02,29.88,12,2,0,0.25
2013-9-12,80.0,70.9,59.9,70.0,64.0,52.0,96,80,48,29.94,29.81,15,2,0,0.00
2013-9-13,62.5,55.6,45.0,52.0,47.5,43.0,93,75,55,30.14,29.94,12,4,0,0.00
2013-9-14,72.7,55.3,40.8,53.0,45.0,40.0,97,73,35,30.21,30.10,2,0,0,0.00
2013-9-15,69.2,58.5,48.7,57.0,52.2,47.0,97,81,56,30.14,30.03,4,0,0,0.07
2013-9-16,65.1,58.0,50.0,57.0,52.2,46.0,98,82,55,30.36,30.11,8,1,0,0.00
2013-9-17,65.0,53.8,41.5,55.0,47.0,41.0,97,79,53,30.40,30.23,11,2,0,0.00
2013-9-18,73.7,60.5,47.8,62.0,55.4,47.0,97,84,57,30.22,30.04,5,0,0,0.00
2013-9-19,81.0,70.4,61.1,71.0,65.9,60.0,98,86,68,30.05,29.91,9,1,0,0.01
2013-9-20,85.4,73.9,68.8,73.0,69.4,67.0,97,86,64,29.92,29.72,12,2,0,0.18
2013-9-21,70.5,64.2,55.3,68.0,57.6,50.0,99,81,52,29.85,29.66,14,3,0,1.31
2013-9-22,63.4,56.1,52.2,51.0,45.1,42.0,83,67,54,30.08,29.86,10,3,0,0.00
2013-9-23,64.1,54.8,48.0,50.0,47.1,45.0,92,77,52,30.19,30.07,7,0,0,0.00
2013-9-24,65.0,55.8,48.7,54.0,50.9,47.0,97,84,64,30.15,30.00,12,1,0,0.00
2013-9-25,70.8,58.0,48.0,61.0,54.2,47.0,98,88,66,30.00,29.93,9,1,0,0.00
2013-9-26,75.7,59.2,46.9,60.0,50.0,-99.9,99,77,45,30.13,29.99,8,-10,0,0.01
2013-9-27,73.6,60.3,48.2,62.0,55.2,47.0,98,85,62,30.23,30.14,9,2,0,0.00
2013-9-28,75.4,63.8,49.5,63.0,57.2,49.0,98,81,57,30.20,30.02,8,2,0,0.01
2013-9-29,65.0,62.9,60.5,63.0,59.3,56.0,98,88,74,30.02,29.95,5,0,0,0.18
2013-9-30,72.1,63.7,56.5,60.0,58.7,55.0,99,85,58,30.02,29.93,7,0,0,0.01
2013-10-1,75.5,63.7,53.1,65.0,60.2,52.0,99,89,68,30.03,29.94,10,1,0,0.01
2013-10-2,82.8,68.9,58.9,64.0,58.7,52.0,97,74,38,30.07,29.96,5,1,0,0.00
2013-10-3,79.8,68.4,58.3,71.0,64.6,56.0,96,88,71,30.05,29.92,7,0,0,0.06
2013-10-4,80.8,72.2,68.2,71.0,67.8,66.0,93,86,66,30.01,29.94,8,2,0,0.03
2013-10-5,74.7,70.1,66.0,71.0,67.4,64.0,97,91,81,30.02,29.86,6,1,0,0.06
2013-10-6,73.9,66.8,56.6,69.0,65.0,56.0,98,94,80,29.85,29.63,11,3,0,0.60
2013-10-7,61.9,53.4,45.2,55.0,47.7,43.0,96,82,62,30.13,29.69,12,3,0,0.00
2013-10-8,67.0,53.6,41.1,52.0,46.0,40.0,98,79,41,30.30,30.13,6,1,0,0.01
2013-10-9,68.0,55.0,42.8,57.0,48.1,42.0,98,81,48,30.32,30.22,13,2,0,0.00
2013-10-10,70.0,55.0,41.8,60.0,47.6,41.0,99,80,38,30.23,30.12,6,1,0,0.01
2013-10-11,70.8,56.6,43.9,59.0,50.4,43.0,98,82,39,30.15,30.07,6,1,0,0.00
2013-10-12,75.7,61.5,49.3,63.0,55.7,48.0,99,84,42,30.11,30.04,6,1,0,0.01
2013-10-13,70.7,61.6,50.5,61.0,49.6,42.0,96,69,35,30.33,30.08,10,2,0,0.00
2013-10-14,64.1,50.9,-90.0,54.0,43.8,-99.9,100,80,59,30.41,30.28,5,-10,0,0.00
2013-10-15,63.5,55.6,42.8,62.0,53.4,42.0,98,92,87,30.27,29.86,5,1,0,0.06
2013-10-16,64.1,59.9,53.5,63.0,53.3,46.0,97,80,57,29.92,29.82,13,3,0,0.00
2013-10-17,53.7,50.3,44.7,50.0,47.6,43.0,96,90,81,29.91,29.79,3,0,0,0.10
2013-10-18,66.1,52.6,41.8,49.0,44.7,41.0,95,77,44,29.95,29.86,9,1,0,0.00
2013-10-19,51.2,42.3,40.4,46.0,32.9,-99.9,95,82,72,29.93,29.78,6,-62,0,0.19
2013-10-20,62.0,47.8,41.6,46.0,29.9,-99.9,89,64,47,29.94,29.87,13,-80,0,0.00
2013-10-21,58.1,47.5,41.9,50.0,30.7,-99.9,92,69,66,29.90,29.82,14,-101,0,0.06
2013-10-22,51.7,36.6,35.0,37.0,11.6,-99.9,85,58,51,29.97,29.88,9,-166,0,0.00
2013-10-23,49.5,35.1,33.4,37.0,14.5,-99.9,95,67,47,29.98,29.84,10,-145,0,0.01
2013-10-24,49.1,33.0,32.1,37.0,9.3,-99.9,95,63,50,30.21,29.97,11,-175,0,0.00
2013-10-25,48.9,35.2,30.2,39.0,15.7,-99.9,96,66,54,30.37,30.17,7,-124,0,0.00
2013-10-26,51.6,37.0,37.9,41.0,11.6,-99.9,93,57,57,30.17,29.84,14,-163,0,0.04
2013-10-27,55.4,37.5,30.6,39.0,13.2,-99.9,95,59,48,30.11,30.02,1,-156,0,0.00
2013-10-28,56.3,39.3,34.9,45.0,19.1,-99.9,89,64,65,30.40,30.07,7,-135,0,0.00
2013-10-29,53.6,39.2,36.9,43.0,19.5,-99.9,90,67,63,30.45,30.26,4,-138,0,0.00
2013-10-30,62.4,43.6,34.8,54.0,24.1,-99.9,98,70,60,30.25,29.97,5,-146,0,0.03
2013-10-31,63.4,49.0,55.5,63.0,29.9,-99.9,100,80,93,29.97,29.18,15,-183,0,0.93
2013-11-1,60.6,37.5,47.2,60.0,8.3,-99.9,99,63,76,29.69,29.16,16,-258,0,0.00
2013-11-2,49.4,37.0,41.6,46.0,13.0,-99.9,96,68,77,30.11,29.67,10,-206,0,0.03
2013-11-3,48.7,34.9,33.8,38.0,13.6,-99.9,96,67,62,30.47,30.11,6,-159,0,0.00
2013-11-4,48.0,38.1,40.4,39.0,14.1,-99.9,84,59,55,30.50,30.34,11,-154,0,0.00
2013-11-5,56.8,42.7,42.6,50.0,20.3,-99.9,92,66,70,30.39,30.20,7,-176,0,0.00
2013-11-6,59.9,43.0,45.1,55.0,18.2,-99.9,92,66,66,30.20,29.84,14,-206,0,0.13
2013-11-7,46.1,31.8,37.4,43.0,-0.6,-99.9,94,52,57,30.16,29.99,18,-247,0,0.00
2013-11-8,46.8,32.5,36.0,35.0,5.9,-99.9,89,57,49,30.32,30.16,8,-190,0,0.00
2013-11-9,58.9,42.3,38.9,44.0,15.4,-99.9,81,54,54,30.22,29.84,18,-168,0,0.00
2013-11-10,49.3,34.4,34.8,41.0,4.1,-99.9,85,52,54,30.30,29.93,17,-214,0,0.00
2013-11-11,47.1,31.1,29.7,41.0,8.5,-99.9,97,68,68,30.34,30.06,13,-187,0,0.15
2013-11-12,35.2,24.3,24.8,25.0,-3.2,-99.9,83,57,57,30.59,30.35,13,-204,0,0.00
2013-11-13,39.0,27.4,21.9,27.0,3.2,-99.9,88,57,49,30.59,30.23,15,-153,0,0.00
2013-11-14,53.6,36.6,30.7,28.0,6.7,-99.9,72,44,30,30.25,30.05,13,-142,0,0.00
2013-11-15,52.1,38.9,41.3,34.0,8.6,-99.9,67,45,45,30.11,30.04,9,-164,0,0.00
2013-11-16,59.8,42.2,37.0,54.0,20.4,-99.9,92,69,68,30.13,29.83,15,-174,0,0.00
2013-11-17,66.9,47.5,49.3,61.0,23.2,-99.9,97,68,74,29.83,29.29,18,-202,0,0.68
2013-11-18,49.3,30.6,36.3,42.0,-1.6,-99.9,84,53,66,30.17,29.55,19,-254,0,0.00
2013-11-19,43.5,28.1,28.8,28.0,-2.0,-99.9,91,53,49,30.44,30.18,10,-221,0,0.00
2013-11-20,44.9,32.0,27.1,34.0,7.0,-99.9,95,59,55,30.47,30.27,13,-175,0,0.00
2013-11-21,46.5,34.6,40.9,45.0,10.3,-99.9,97,69,65,30.32,30.19,9,-218,0,0.43
2013-11-22,47.4,31.3,30.1,47.0,6.0,-99.9,98,69,77,30.39,30.14,13,-227,0,0.02
2013-11-23,32.4,21.9,18.9,27.0,-2.2,-99.9,93,60,52,30.57,30.31,21,-173,0,0.00
2013-11-24,28.2,18.0,15.4,17.0,-6.9,-99.9,84,58,52,30.66,30.50,10,-176,0,0.00
2013-11-25,32.6,23.5,20.6,25.0,-2.5,-99.9,82,55,54,30.50,30.16,10,-177,0,0.00
2013-11-26,37.1,25.8,31.7,30.0,-3.2,-99.9,85,59,72,30.17,29.96,8,-244,0,0.00
2013-11-27,31.9,20.9,20.0,27.0,-7.7,-99.9,83,53,56,30.24,29.93,17,-203,0,0.00
2013-11-28,30.6,20.5,18.8,23.0,-6.7,-99.9,87,57,57,30.47,30.25,11,-207,0,0.00
2013-11-29,35.8,22.6,18.5,26.0,-2.2,-99.9,92,63,56,30.70,30.47,2,-198,0,0.00
2013-11-30,47.5,31.1,30.5,31.0,3.9,-99.9,79,54,52,30.60,30.14,6,-187,0,0.00
2013-12-1,46.9,31.6,30.4,37.0,6.5,-99.9,91,62,68,30.14,30.00,6,-198,0,0.00
2013-12-2,41.8,26.7,27.7,33.0,-0.6,-99.9,97,62,59,30.01,29.91,1,-229,0,0.00
2013-12-3,41.2,29.7,26.4,39.0,5.5,-99.9,93,69,80,29.94,29.86,8,-218,0,0.01
2013-12-4,60.2,38.5,38.7,55.0,14.3,-99.9,95,70,84,29.92,29.66,8,-220,0,0.00
2013-12-5,61.1,35.0,32.7,57.0,10.8,-99.9,87,63,70,30.18,29.65,9,-185,0,0.00
2013-12-6,32.6,21.9,23.4,25.0,-8.5,-99.9,77,54,67,30.44,30.16,7,-239,0,0.00
2013-12-7,27.3,17.2,15.8,17.0,-13.7,-99.9,83,52,55,30.66,30.44,8,-238,0,0.00
2013-12-8,31.4,19.3,14.2,29.0,-3.3,-99.9,95,69,77,30.65,30.04,7,-197,0,0.00
2013-12-9,31.2,20.0,20.9,30.0,-8.8,-99.9,96,61,75,30.18,29.94,13,-252,0,0.00
2013-12-10,25.5,16.3,13.3,15.0,-12.6,-99.9,82,54,51,30.26,30.02,9,-218,0,0.00
2013-12-11,25.9,14.7,9.0,20.0,-12.8,-99.9,89,61,72,30.52,30.26,5,-234,0,0.00
2013-12-12,17.8,10.6,5.0,11.0,-15.5,-99.9,87,58,59,30.53,30.27,5,-200,0,0.00
2013-12-13,30.4,19.6,16.7,23.0,-5.7,-99.9,85,61,68,30.32,30.22,2,-204,0,0.00
2013-12-14,24.9,17.6,21.3,23.0,-5.8,-99.9,95,72,82,30.30,29.84,8,-220,0,0.00
2013-12-15,25.9,16.1,15.3,23.0,-8.3,-99.9,93,68,82,30.10,29.85,7,-218,0,0.00
2013-12-16,22.7,13.2,4.1,21.0,-10.0,-99.9,93,67,69,30.24,30.04,0,-198,0,0.00
2013-12-17,27.4,19.0,15.1,23.0,-1.9,-99.9,93,72,82,30.06,29.95,6,-187,0,0.00
2013-12-18,29.3,20.1,20.0,23.0,-5.7,-99.9,93,63,67,30.19,29.96,7,-214,0,0.00
2013-12-19,43.5,31.3,28.9,36.0,7.2,-99.9,90,64,65,30.02,29.91,5,-191,0,0.06
2013-12-20,43.3,30.3,36.5,43.0,5.7,-99.9,98,73,90,29.91,29.74,0,-239,0,0.25
2013-12-21,39.0,25.2,34.0,39.0,-4.0,-99.9,99,70,98,29.88,29.65,3,-291,0,1.15
2013-12-22,40.5,28.6,34.3,40.0,3.6,-99.9,99,72,87,30.00,29.55,17,-239,0,0.09
2013-12-23,35.8,22.9,21.7,34.0,-5.9,-99.9,94,61,72,30.35,30.01,9,-249,0,0.00
2013-12-24,22.9,14.8,12.6,15.0,-9.0,-99.9,91,63,65,30.59,30.35,7,-178,0,0.00
2013-12-25,26.8,17.4,13.6,24.0,-8.8,-99.9,91,66,74,30.56,30.18,5,-236,0,0.00
2013-12-26,29.6,20.9,26.1,26.0,-6.6,-99.9,94,62,74,30.34,30.10,7,-239,0,0.00
2013-12-27,42.9,29.5,29.0,34.0,5.0,-99.9,87,64,70,30.36,30.13,7,-199,0,0.00
2013-12-28,50.0,34.7,37.2,39.0,9.4,-99.9,84,61,65,30.16,29.94,11,-193,0,0.00
2013-12-29,44.6,29.0,26.7,36.0,2.1,-99.9,93,61,71,30.02,29.71,14,-220,0,0.00
2013-12-30,26.8,16.8,18.6,22.0,-12.9,-99.9,87,56,61,30.30,30.02,10,-241,0,0.00
2013-12-31,23.0,15.7,17.7,19.0,-8.5,-99.9,90,64,70,30.39,30.12,6,-198,0,0.00
2014-1-1,18.1,13.4,15.0,16.0,-7.8,-99.9,92,72,83,30.42,30.23,4,-189,0,0.00
2014-1-2,17.7,10.9,5.5,16.0,-13.4,-99.9,92,68,74,30.31,30.09,10,-217,0,0.00